x

Tanner Bank - 121nm West Of San Diego, Ca (46047) Wave Buoy

9:50pm - Sat 21st Oct 2017 All times are PDT. -7 hours from GMT.

  • Sig Wave height 13.1ft
  • Swell Direction
  • Peak Period 14s
  • Average Period 8s
  • Wind
    18mph, 22mph gusts
  • Sea Temp 64°f
  • Air Temp 64°f
  • Sea Pressure 1018.7mb
  • Tanner Bank - 121nm West Of San Diego, Ca
  • Tanner Bank - 121nm West Of San Diego, Ca

More Historic Weather Station data

Upgrade to MSW Pro to gain access to the past 30 days of data for over 8000 Wavebouys and Weather Stations around the globe.

Join

Comparision Forecast

View Surf forecast
   
Sat 10/21 9:50pm 13ft 14s 8s 18 22 mph 1018.7mb 64f 64f
8:50pm 13ft 13s 8s 20 25 mph 1018.2mb 64f 64f
7:50pm 13ft 15s 9s 20 25 mph 1018mb 64f 64f
5:50pm 12ft 16s 9s 18 22 mph 1017.6mb 64f 63f
4:50pm 12.5ft 16s 9s 16 20 mph 1017.4mb 64f 63f
3:50pm 14ft 15s 9s 16 20 mph 1017.2mb 64f 63f
2:50pm 15.5ft 15s 10s 16 20 mph 1017.2mb 64f 62f
1:50pm 15ft 15s 9s 16 18 mph 1017.5mb 64f 62f
12:50pm 16.5ft 16s 10s 16 20 mph 1018.1mb 64f 62f
11:50am 15.5ft 16s 9s 18 22 mph 1018.2mb 63f 62f
10:50am 14ft 15s 8s 20 27 mph 1018mb 64f 62f
9:50am 16.5ft 16s 9s 22 27 mph 1017.6mb 64f 62f
8:50am 15.5ft 17s 9s 25 29 mph 1017.2mb 64f 62f
7:50am 16.5ft 16s 9s 25 29 mph 1016.6mb 64f 62f
6:50am 16.5ft 16s 9s 27 31 mph 1016mb 64f 62f
5:50am 16.5ft 17s 9s 29 36 mph 1015.3mb 64f 62f
4:50am 17.5ft 17s 9s 27 31 mph 1015.5mb 64f 62f
3:50am 16.5ft 17s 9s 29 36 mph 1015.1mb 63f 62f
2:50am 18ft 17s 9s 27 31 mph 1015.5mb 63f 62f
1:50am 18.5ft 17s 9s 25 29 mph 1016.1mb 63f 62f
12:50am 16.5ft 17s 9s 25 27 mph 1016.3mb 63f 62f
Fri 10/20 11:50pm 18ft 17s 9s 25 29 mph 1016.2mb 64f 62f
10:50pm 19.5ft 17s 9s 25 31 mph 1016.2mb 64f 62f
9:50pm 18.5ft 17s 9s 27 34 mph 1015.6mb 64f 62f
8:50pm 17ft 17s 8s 27 34 mph 1014.9mb 64f 63f
7:50pm 17.5ft 16s 9s 29 36 mph 1014.6mb 64f 63f
6:50pm 17.5ft 16s 9s 31 38 mph 1014.3mb 64f 63f
5:50pm 16ft 19s 9s 29 38 mph 1014mb 64f 63f
4:50pm 14ft 17s 9s 22 29 mph 1014.7mb 64f 63f
3:50pm 12.5ft 17s 8s 22 27 mph 1014.9mb 64f 63f
2:50pm 13.5ft 19s 9s 22 25 mph 1015.3mb 64f 63f
1:50pm 11ft 19s 9s 20 27 mph 1015.5mb 64f 63f
12:50pm 8ft 19s 7s 20 22 mph 1016mb 64f 63f
11:50am 7.5ft 19s 7s 18 22 mph 1016.3mb 64f 64f
10:50am 6.5ft 21s 6s 16 18 mph 1016.5mb 64f 65f
9:50am 6ft 19s 6s 16 18 mph 1016.5mb 64f 64f
8:50am 5.5ft 11s 6s 13 18 mph 1016.2mb 64f 64f
7:50am 6ft 10s 6s 16 18 mph 1015.9mb 64f 65f
6:50am 6ft 10s 6s 18 20 mph 1015.8mb 65f 65f
5:50am 6ft 10s 6s 16 18 mph 1015.3mb 65f 64f
4:50am 6ft 14s 6s 16 20 mph 1015mb 65f 64f
3:50am 5.5ft 14s 6s 18 20 mph 1014.5mb 65f 64f
2:50am 6ft 14s 6s 18 20 mph 1014.6mb 65f 63f
1:50am 6ft 14s 6s 13 18 mph 1014.5mb 64f 64f
12:50am 6.5ft 7s 6s 18 20 mph 1014.6mb 64f 64f
Thu 10/19 11:50pm 6.5ft 7s 6s 16 20 mph 1014.7mb 64f 64f
10:50pm 7ft 7s 6s 18 20 mph 1014.4mb 65f 64f
9:50pm 7ft 7s 6s 13 18 mph 1014.1mb 65f 64f
8:50pm 8ft 7s 7s 16 18 mph 1013.8mb 65f 64f
7:50pm 8ft 7s 6s 16 18 mph 1013.1mb 65f 64f
6:50pm 8ft 13s 6s 20 25 mph 1012.7mb 66f 64f
5:50pm 7ft 7s  -  20 22 mph 1012.6mb 66f 64f
4:50pm 7.5ft 7s 6s 20 22 mph 1012.7mb 66f 64f
3:50pm 7ft 15s 6s 20 22 mph 1013mb 65f 64f
2:50pm 7ft 15s 6s 20 22 mph 1013mb 65f 64f
1:50pm 7ft 12s 6s 18 20 mph 1013.2mb 65f 64f
12:50pm 7ft 7s 6s 16 18 mph 1013.9mb 65f 64f
11:50am 7ft 7s 6s 16 18 mph 1014.4mb 65f 64f
10:50am 9ft 7s 6s 18 22 mph 1014mb 64f 64f
9:50am 8ft 7s 6s 18 20 mph 1014.2mb 64f 63f
8:50am 8.5ft 8s 7s 18 20 mph 1013.9mb 64f 63f
7:50am 8ft 8s 6s 18 20 mph 1013.5mb 64f 63f
6:50am 8.5ft 7s 6s 16 18 mph 1013.3mb 64f 63f
5:50am 8ft 7s 6s 18 20 mph 1012.8mb 64f 63f
4:50am 7.5ft 8s 6s 18 20 mph 1012.7mb 64f 64f
3:50am 8ft 7s 6s 16 18 mph 1013mb 64f 64f
2:50am 7ft 15s 6s 18 20 mph 1013.1mb 64f 64f
1:50am 8.5ft 8s 7s 18 20 mph 1013.4mb 64f 64f
12:50am 8ft 8s 6s 18 20 mph 1013.3mb 64f 64f
Wed 10/18 11:50pm 8ft 16s 7s 16 18 mph 1013.8mb 64f 65f
10:50pm 8.5ft 8s 7s 16 18 mph 1013.8mb 64f 65f
9:50pm 8.5ft 16s 7s 18 20 mph 1013.5mb 64f 65f
8:50pm 8ft 15s 7s 13 16 mph 1013.6mb 64f 65f
7:50pm 8ft 7s 7s 16 20 mph 1013.6mb 64f 65f
6:50pm 8ft 14s 7s 16 18 mph 1013.5mb 64f 65f
5:50pm 7.5ft 16s 7s 13 18 mph 1013.4mb 65f 65f
4:50pm 7ft 16s 6s 16 18 mph 1013.7mb 65f 65f
3:50pm 7ft 15s 6s 16 18 mph 1013.8mb 65f 65f
2:50pm 7ft 16s 6s 16 18 mph 1014mb 64f 65f
1:50pm 7ft 16s 6s 16 18 mph 1014.6mb 64f 65f
12:50pm 7ft 16s 6s 16 18 mph 1015.4mb 65f 66f
11:50am 7ft 16s 6s 16 18 mph 1015.6mb 65f 66f
10:50am 8ft 16s 6s 16 18 mph 1015.5mb 65f 66f
9:50am 8ft 16s 6s 16 18 mph 1015mb 65f 66f
8:50am 7ft 15s 6s 16 18 mph 1014.9mb 65f 66f
7:50am 6.5ft 16s 6s 16 18 mph 1014.2mb 65f 66f
6:50am 6.5ft 17s 6s 18 22 mph 1013.7mb 65f 66f